Time;durP1;ratioP1;P1;durP2;ratioP2;P2;SDS_P1;SDS_P2;PMS_P1;PMS_P2;Temp;Humidity;BMP_temperature;BMP_pressure;BME280_temperature;BME280_humidity;BME280_pressure;Samples;Min_cycle;Max_cycle;Signal;HPM_P1;HPM_P2
2022/07/19 00:01:33;;;;;;;14.30;7.50;;;;;;;;;;4935183;28;20042;-69
2022/07/19 00:03:59;;;;;;;14.15;7.03;;;;;;;;;;4948533;28;20034;-69
2022/07/19 00:06:24;;;;;;;16.58;8.70;;;;;;;;;;4934593;28;20035;-69
2022/07/19 00:08:49;;;;;;;23.25;9.45;;;;;;;;;;4933971;28;20124;-69
2022/07/19 00:11:15;;;;;;;19.70;9.70;;;;;;;;;;4935379;28;20774;-69
2022/07/19 00:13:40;;;;;;;24.73;10.57;;;;;;;;;;4934461;28;20070;-70
2022/07/19 00:16:05;;;;;;;21.92;10.73;;;;;;;;;;4934944;28;20034;-69
2022/07/19 00:18:33;;;;;;;25.45;11.70;;;;;;;;;;4934199;28;20834;-69
2022/07/19 00:20:58;;;;;;;20.63;10.98;;;;;;;;;;4932893;28;20059;-69
2022/07/19 00:23:23;;;;;;;22.55;9.98;;;;;;;;;;4934362;28;20030;-69
2022/07/19 00:25:49;;;;;;;20.73;9.90;;;;;;;;;;4935115;28;20030;-69
2022/07/19 00:28:14;;;;;;;24.25;10.48;;;;;;;;;;4938612;28;20038;-69
2022/07/19 00:30:42;;;;;;;19.50;9.68;;;;;;;;;;4949093;28;20046;-69
2022/07/19 00:33:09;;;;;;;25.00;9.98;;;;;;;;;;4948052;28;20035;-69
2022/07/19 00:35:38;;;;;;;23.65;9.82;;;;;;;;;;4935052;28;20749;-69
2022/07/19 00:38:04;;;;;;;18.83;9.55;;;;;;;;;;4949000;28;20039;-68
2022/07/19 00:40:30;;;;;;;20.15;9.75;;;;;;;;;;4934245;28;20043;-69
2022/07/19 00:42:56;;;;;;;19.92;9.35;;;;;;;;;;4933855;28;20170;-69
2022/07/19 00:45:24;;;;;;;18.40;8.32;;;;;;;;;;4948175;28;20049;-69
2022/07/19 00:47:49;;;;;;;15.90;7.68;;;;;;;;;;4935201;28;20035;-69
2022/07/19 00:50:15;;;;;;;16.73;7.65;;;;;;;;;;4930914;28;20785;-70
2022/07/19 00:52:45;;;;;;;15.98;7.50;;;;;;;;;;4934841;28;20824;-69
2022/07/19 00:55:10;;;;;;;13.85;7.45;;;;;;;;;;4933855;28;20551;-69
2022/07/19 00:57:38;;;;;;;16.50;7.53;;;;;;;;;;4934618;28;20038;-69
2022/07/19 01:00:04;;;;;;;15.20;6.88;;;;;;;;;;4947270;28;20095;-69
2022/07/19 01:02:31;;;;;;;12.18;6.38;;;;;;;;;;4933916;28;20053;-68
2022/07/19 01:04:56;;;;;;;13.57;7.20;;;;;;;;;;4932622;28;20038;-69
2022/07/19 01:07:21;;;;;;;15.73;6.82;;;;;;;;;;4947980;28;20112;-68
2022/07/19 01:09:50;;;;;;;13.88;6.47;;;;;;;;;;4947985;28;20082;-68
2022/07/19 01:12:18;;;;;;;15.80;6.10;;;;;;;;;;4933728;28;20035;-68
2022/07/19 01:14:46;;;;;;;16.35;6.28;;;;;;;;;;4933372;28;20165;-68
2022/07/19 01:17:11;;;;;;;13.20;5.68;;;;;;;;;;4947271;28;20061;-68
2022/07/19 01:19:36;;;;;;;10.60;5.13;;;;;;;;;;4932533;28;20062;-68
2022/07/19 01:22:03;;;;;;;14.77;6.20;;;;;;;;;;4941160;28;20073;-69
2022/07/19 01:24:30;;;;;;;16.60;6.18;;;;;;;;;;4936095;28;20149;-70
2022/07/19 01:26:55;;;;;;;14.23;6.40;;;;;;;;;;4933515;28;20034;-69
2022/07/19 01:29:20;;;;;;;17.75;6.10;;;;;;;;;;4947144;28;20069;-69
2022/07/19 01:31:46;;;;;;;16.40;6.60;;;;;;;;;;4933236;28;20042;-70
2022/07/19 01:34:11;;;;;;;15.32;7.13;;;;;;;;;;4932717;28;20031;-69
2022/07/19 01:36:37;;;;;;;13.32;6.45;;;;;;;;;;4947224;28;20051;-69
2022/07/19 01:39:02;;;;;;;18.00;6.65;;;;;;;;;;4946873;28;20935;-69
2022/07/19 01:41:27;;;;;;;14.63;5.80;;;;;;;;;;4933006;28;20124;-70
2022/07/19 01:43:55;;;;;;;15.27;6.70;;;;;;;;;;4933133;28;20034;-70
2022/07/19 01:46:20;;;;;;;14.75;6.95;;;;;;;;;;4947154;28;20031;-68
2022/07/19 01:48:46;;;;;;;20.63;8.15;;;;;;;;;;4932073;28;20058;-69
2022/07/19 01:51:11;;;;;;;15.50;6.90;;;;;;;;;;4931463;28;20092;-69
2022/07/19 01:53:37;;;;;;;17.42;7.05;;;;;;;;;;4933302;28;20031;-70
2022/07/19 01:56:05;;;;;;;15.05;6.05;;;;;;;;;;4932147;28;20058;-69
2022/07/19 01:58:31;;;;;;;14.73;6.13;;;;;;;;;;4932507;28;21853;-69
2022/07/19 02:00:56;;;;;;;15.05;6.20;;;;;;;;;;4946570;28;20075;-68
2022/07/19 02:03:21;;;;;;;12.60;6.15;;;;;;;;;;4946285;28;20035;-70
2022/07/19 02:05:47;;;;;;;14.27;5.95;;;;;;;;;;4931195;28;20034;-68
2022/07/19 02:08:13;;;;;;;9.98;5.78;;;;;;;;;;4931015;28;20354;-68
2022/07/19 02:10:38;;;;;;;9.70;5.32;;;;;;;;;;4919081;28;20394;-68
2022/07/19 02:13:05;;;;;;;11.38;5.10;;;;;;;;;;4929097;28;20614;-68
2022/07/19 02:15:31;;;;;;;10.60;5.28;;;;;;;;;;4945358;28;20035;-69
2022/07/19 02:17:56;;;;;;;11.38;6.03;;;;;;;;;;4927877;28;20046;-69
2022/07/19 02:20:22;;;;;;;9.75;5.15;;;;;;;;;;4929659;28;20038;-69
2022/07/19 02:22:47;;;;;;;9.85;5.15;;;;;;;;;;4930813;28;20047;-69
2022/07/19 02:25:16;;;;;;;11.85;5.10;;;;;;;;;;4929784;28;20142;-69
2022/07/19 02:27:41;;;;;;;9.10;5.43;;;;;;;;;;4929656;28;20130;-69
2022/07/19 02:30:07;;;;;;;12.50;6.55;;;;;;;;;;4929985;28;20052;-71
2022/07/19 02:32:33;;;;;;;15.60;7.63;;;;;;;;;;4929588;28;20042;-68
2022/07/19 02:34:58;;;;;;;17.42;8.00;;;;;;;;;;4929654;28;20034;-69
2022/07/19 02:37:24;;;;;;;11.88;6.55;;;;;;;;;;4928538;28;20137;-69
2022/07/19 02:39:49;;;;;;;12.40;5.88;;;;;;;;;;4933917;28;20223;-69
2022/07/19 02:42:14;;;;;;;13.10;5.78;;;;;;;;;;4937638;28;20046;-69
2022/07/19 02:44:42;;;;;;;12.15;5.50;;;;;;;;;;4933988;28;20642;-69
2022/07/19 02:47:07;;;;;;;13.95;5.32;;;;;;;;;;4938964;28;20122;-69
2022/07/19 02:49:34;;;;;;;11.13;5.78;;;;;;;;;;4933432;28;20043;-69
2022/07/19 02:52:00;;;;;;;10.93;6.10;;;;;;;;;;4933849;28;20093;-68
2022/07/19 02:54:25;;;;;;;10.23;6.22;;;;;;;;;;4932871;28;20027;-68
2022/07/19 02:56:53;;;;;;;14.50;6.65;;;;;;;;;;4935060;28;20038;-69
2022/07/19 02:59:18;;;;;;;15.38;6.60;;;;;;;;;;4935256;28;20030;-68
2022/07/19 03:01:44;;;;;;;16.13;7.38;;;;;;;;;;4935829;28;20845;-70
2022/07/19 03:04:09;;;;;;;15.88;7.10;;;;;;;;;;4935350;28;20074;-70
2022/07/19 03:06:35;;;;;;;16.98;7.25;;;;;;;;;;4936221;28;20049;-70
2022/07/19 03:09:00;;;;;;;16.48;6.70;;;;;;;;;;4949498;28;20050;-69
2022/07/19 03:11:26;;;;;;;18.85;7.55;;;;;;;;;;4950568;28;20038;-69
2022/07/19 03:13:54;;;;;;;16.58;8.07;;;;;;;;;;4933378;28;20036;-70
2022/07/19 03:16:19;;;;;;;17.13;8.18;;;;;;;;;;4950748;28;20089;-70
2022/07/19 03:18:45;;;;;;;13.77;7.68;;;;;;;;;;4935804;28;20042;-70
2022/07/19 03:21:10;;;;;;;18.25;7.78;;;;;;;;;;4933908;28;20044;-70
2022/07/19 03:23:36;;;;;;;18.35;7.93;;;;;;;;;;4931567;28;20039;-70
2022/07/19 03:26:02;;;;;;;14.77;7.65;;;;;;;;;;4932734;28;20752;-70
2022/07/19 03:28:28;;;;;;;19.73;9.23;;;;;;;;;;4935606;28;20106;-70
2022/07/19 03:30:56;;;;;;;19.65;9.57;;;;;;;;;;4935096;28;20057;-69
2022/07/19 03:33:21;;;;;;;19.90;8.73;;;;;;;;;;4935784;28;20742;-70
2022/07/19 03:35:47;;;;;;;16.88;8.95;;;;;;;;;;4935436;28;20041;-70
2022/07/19 03:38:15;;;;;;;19.60;7.80;;;;;;;;;;4935828;28;20043;-70
2022/07/19 03:40:41;;;;;;;19.67;8.27;;;;;;;;;;4935114;28;20886;-70
2022/07/19 03:43:06;;;;;;;15.95;7.80;;;;;;;;;;4944526;28;20046;-70
2022/07/19 03:45:31;;;;;;;19.48;7.68;;;;;;;;;;4934586;28;20114;-70
2022/07/19 03:47:57;;;;;;;17.05;7.10;;;;;;;;;;4949652;28;22265;-69
2022/07/19 03:50:22;;;;;;;14.05;6.15;;;;;;;;;;4932931;28;20161;-69
2022/07/19 03:52:48;;;;;;;14.45;6.28;;;;;;;;;;4935067;28;20039;-69
2022/07/19 03:55:13;;;;;;;16.05;6.55;;;;;;;;;;4934854;28;20069;-68
2022/07/19 03:57:38;;;;;;;11.20;5.90;;;;;;;;;;4932455;28;20476;-69
2022/07/19 04:00:04;;;;;;;16.17;5.63;;;;;;;;;;4931648;28;20042;-69
2022/07/19 04:02:33;;;;;;;12.85;5.28;;;;;;;;;;4931694;28;20047;-70
2022/07/19 04:04:58;;;;;;;10.15;4.72;;;;;;;;;;4929750;28;20034;-68
2022/07/19 04:07:23;;;;;;;11.25;4.90;;;;;;;;;;4923082;28;20542;-69
2022/07/19 04:09:48;;;;;;;14.25;5.68;;;;;;;;;;4935136;28;20039;-68
2022/07/19 04:12:16;;;;;;;15.63;5.90;;;;;;;;;;4931709;28;20819;-68
2022/07/19 04:14:41;;;;;;;19.30;6.38;;;;;;;;;;4931212;28;21884;-68
2022/07/19 04:17:07;;;;;;;10.75;5.45;;;;;;;;;;4938260;28;20051;-68
2022/07/19 04:19:33;;;;;;;13.68;5.70;;;;;;;;;;4930912;28;20128;-68
2022/07/19 04:21:58;;;;;;;14.07;5.50;;;;;;;;;;4930203;28;20035;-68
2022/07/19 04:24:26;;;;;;;14.15;6.13;;;;;;;;;;4931204;28;20495;-66
2022/07/19 04:26:51;;;;;;;17.42;5.57;;;;;;;;;;4930330;28;20050;-67
2022/07/19 04:29:16;;;;;;;18.38;6.55;;;;;;;;;;4930639;28;20133;-70
2022/07/19 04:31:42;;;;;;;18.13;7.05;;;;;;;;;;4932411;28;20034;-72
2022/07/19 04:34:07;;;;;;;12.13;6.38;;;;;;;;;;4930732;28;20372;-72
2022/07/19 04:36:32;;;;;;;15.25;6.45;;;;;;;;;;4932182;28;20038;-72
2022/07/19 04:38:58;;;;;;;16.30;6.47;;;;;;;;;;4931208;28;20251;-72
2022/07/19 04:41:23;;;;;;;17.23;6.18;;;;;;;;;;4931053;28;20030;-72
2022/07/19 04:43:48;;;;;;;14.82;5.40;;;;;;;;;;4936277;28;20146;-71
2022/07/19 04:46:13;;;;;;;8.88;5.30;;;;;;;;;;4934867;28;20263;-71
2022/07/19 04:48:40;;;;;;;10.52;4.88;;;;;;;;;;4932495;28;20035;-74
2022/07/19 04:51:06;;;;;;;13.05;5.55;;;;;;;;;;4934581;28;20055;-74
2022/07/19 04:53:31;;;;;;;12.70;5.10;;;;;;;;;;4930400;28;20563;-74
2022/07/19 04:55:58;;;;;;;8.25;4.35;;;;;;;;;;4933104;28;20050;-72
2022/07/19 04:58:24;;;;;;;10.90;4.60;;;;;;;;;;4931648;28;20287;-73
2022/07/19 05:00:49;;;;;;;8.35;4.30;;;;;;;;;;4928458;28;20046;-73
2022/07/19 05:03:15;;;;;;;10.20;4.40;;;;;;;;;;4931444;28;20145;-73
2022/07/19 05:05:40;;;;;;;13.00;6.05;;;;;;;;;;4929705;28;20415;-72
2022/07/19 05:08:06;;;;;;;20.17;10.40;;;;;;;;;;4928133;28;20154;-72
2022/07/19 05:10:31;;;;;;;19.65;10.52;;;;;;;;;;4931221;28;20069;-73
2022/07/19 05:12:59;;;;;;;24.02;10.98;;;;;;;;;;4930210;28;20034;-73
2022/07/19 05:15:27;;;;;;;19.88;10.35;;;;;;;;;;4945793;28;20049;-73
2022/07/19 05:17:53;;;;;;;19.25;7.72;;;;;;;;;;4930409;28;20090;-71
2022/07/19 05:20:18;;;;;;;22.63;7.55;;;;;;;;;;4944548;28;20035;-73
2022/07/19 05:22:46;;;;;;;18.58;7.00;;;;;;;;;;4931196;28;20137;-72
2022/07/19 05:25:11;;;;;;;12.32;5.85;;;;;;;;;;4936673;28;20403;-73
2022/07/19 05:27:37;;;;;;;13.57;6.05;;;;;;;;;;4931114;28;20034;-71
2022/07/19 05:30:05;;;;;;;13.43;5.53;;;;;;;;;;4944678;28;20478;-74
2022/07/19 05:32:31;;;;;;;13.63;5.35;;;;;;;;;;4930401;28;20031;-73
2022/07/19 05:34:59;;;;;;;14.25;6.32;;;;;;;;;;4930597;28;20111;-72
2022/07/19 05:37:28;;;;;;;19.40;6.97;;;;;;;;;;4930065;28;20472;-71
2022/07/19 05:39:53;;;;;;;21.42;8.98;;;;;;;;;;4930288;28;20046;-72
2022/07/19 05:42:19;;;;;;;17.10;7.57;;;;;;;;;;4930290;28;20353;-72
2022/07/19 05:44:47;;;;;;;21.67;9.05;;;;;;;;;;4930443;28;20042;-72
2022/07/19 05:47:15;;;;;;;13.57;8.23;;;;;;;;;;4931279;28;20454;-72
2022/07/19 05:49:43;;;;;;;22.38;8.70;;;;;;;;;;4926678;28;20058;-72
2022/07/19 05:52:10;;;;;;;18.13;8.45;;;;;;;;;;4930267;28;20232;-73
2022/07/19 05:54:35;;;;;;;22.88;9.20;;;;;;;;;;4934998;28;20034;-71
2022/07/19 05:57:01;;;;;;;22.00;9.40;;;;;;;;;;4932198;28;20420;-71
2022/07/19 05:59:26;;;;;;;20.42;8.98;;;;;;;;;;4930774;28;20034;-74
2022/07/19 06:01:54;;;;;;;18.25;8.38;;;;;;;;;;4928875;28;20155;-74
2022/07/19 06:04:22;;;;;;;21.30;9.30;;;;;;;;;;4930619;28;20190;-68
2022/07/19 06:06:48;;;;;;;22.27;9.15;;;;;;;;;;4928819;28;20034;-68
2022/07/19 06:09:15;;;;;;;24.25;10.68;;;;;;;;;;4927044;28;20428;-66
2022/07/19 06:11:41;;;;;;;27.25;9.60;;;;;;;;;;4930402;28;20058;-67
2022/07/19 06:14:09;;;;;;;24.52;9.82;;;;;;;;;;4927923;28;20047;-67
2022/07/19 06:16:38;;;;;;;29.35;14.52;;;;;;;;;;4930344;28;20045;-67
2022/07/19 06:19:03;;;;;;;26.92;13.98;;;;;;;;;;4931880;28;20063;-71
2022/07/19 06:21:29;;;;;;;21.98;9.43;;;;;;;;;;4931069;28;20082;-68
2022/07/19 06:23:55;;;;;;;21.52;9.38;;;;;;;;;;4930189;28;20471;-67
2022/07/19 06:26:20;;;;;;;23.75;13.80;;;;;;;;;;4928891;28;20073;-68
2022/07/19 06:28:45;;;;;;;30.33;15.05;;;;;;;;;;4929434;28;20054;-67
2022/07/19 06:31:11;;;;;;;22.67;10.63;;;;;;;;;;4926968;28;20087;-68
2022/07/19 06:33:40;;;;;;;20.90;9.82;;;;;;;;;;4930730;28;20062;-74
2022/07/19 06:36:05;;;;;;;23.02;11.43;;;;;;;;;;4927490;28;20039;-76
2022/07/19 06:38:31;;;;;;;22.77;9.60;;;;;;;;;;4930290;28;20038;-73
2022/07/19 06:40:56;;;;;;;20.50;9.18;;;;;;;;;;4928627;28;20150;-73
2022/07/19 06:43:22;;;;;;;17.42;8.77;;;;;;;;;;4928676;28;20041;-72
2022/07/19 06:45:47;;;;;;;16.83;8.45;;;;;;;;;;4927891;28;20042;-72
2022/07/19 06:48:12;;;;;;;18.27;9.40;;;;;;;;;;4928651;28;20085;-74
2022/07/19 06:50:38;;;;;;;16.77;6.20;;;;;;;;;;4929282;28;20233;-71
2022/07/19 06:53:09;;;;;;;15.07;6.78;;;;;;;;;;4926210;28;20101;-72
2022/07/19 06:55:36;;;;;;;16.52;8.23;;;;;;;;;;4928920;28;20138;-72
2022/07/19 06:58:02;;;;;;;17.50;8.80;;;;;;;;;;4929117;28;20775;-72
2022/07/19 07:00:28;;;;;;;25.48;7.40;;;;;;;;;;4928704;28;20041;-71
2022/07/19 07:02:53;;;;;;;13.85;5.90;;;;;;;;;;4928164;28;20085;-71
2022/07/19 07:05:19;;;;;;;16.52;5.18;;;;;;;;;;4926673;28;20138;-72
2022/07/19 07:07:44;;;;;;;14.43;6.30;;;;;;;;;;4928811;28;20043;-71
2022/07/19 07:10:10;;;;;;;14.80;7.32;;;;;;;;;;4926067;28;20105;-72
2022/07/19 07:12:38;;;;;;;15.40;7.32;;;;;;;;;;4928684;28;20228;-72
2022/07/19 07:15:07;;;;;;;17.75;7.10;;;;;;;;;;4928766;28;20163;-72
2022/07/19 07:17:33;;;;;;;22.45;8.88;;;;;;;;;;4928213;28;20546;-73
2022/07/19 07:20:01;;;;;;;15.65;6.63;;;;;;;;;;4928461;28;20039;-73
2022/07/19 07:22:26;;;;;;;14.43;5.97;;;;;;;;;;4936177;28;20042;-73
2022/07/19 07:24:52;;;;;;;18.02;6.10;;;;;;;;;;4932950;28;20146;-75
2022/07/19 07:27:18;;;;;;;14.13;5.95;;;;;;;;;;4932860;28;20868;-77
2022/07/19 07:29:43;;;;;;;16.45;6.10;;;;;;;;;;4934570;28;20246;-78
2022/07/19 07:32:08;;;;;;;9.38;4.10;;;;;;;;;;4932413;28;20755;-76
2022/07/19 07:34:33;;;;;;;11.70;4.97;;;;;;;;;;4939121;28;20035;-76
2022/07/19 07:36:59;;;;;;;12.13;4.85;;;;;;;;;;4933137;28;20073;-74
2022/07/19 07:39:24;;;;;;;12.68;4.72;;;;;;;;;;4937360;28;20342;-75
2022/07/19 07:41:49;;;;;;;11.50;4.18;;;;;;;;;;4932542;28;20027;-77
2022/07/19 07:44:17;;;;;;;11.70;3.63;;;;;;;;;;4934290;28;20474;-75
2022/07/19 07:46:42;;;;;;;10.90;3.78;;;;;;;;;;4932369;28;20169;-77
2022/07/19 07:49:07;;;;;;;10.98;4.25;;;;;;;;;;4932033;28;20200;-75
2022/07/19 07:51:32;;;;;;;13.10;3.70;;;;;;;;;;4935632;28;20066;-78
2022/07/19 07:54:00;;;;;;;11.10;3.90;;;;;;;;;;4933682;28;20097;-76
2022/07/19 07:56:26;;;;;;;10.93;3.70;;;;;;;;;;4929754;28;20476;-77
2022/07/19 07:58:54;;;;;;;11.35;3.72;;;;;;;;;;4932733;28;20117;-77
2022/07/19 08:01:19;;;;;;;12.05;3.22;;;;;;;;;;4931322;28;20213;-80
2022/07/19 08:03:44;;;;;;;14.43;3.97;;;;;;;;;;4932930;28;20225;-74
2022/07/19 08:06:10;;;;;;;8.45;3.50;;;;;;;;;;4929245;28;20480;-76
2022/07/19 08:08:36;;;;;;;10.45;4.85;;;;;;;;;;4931129;28;20035;-73
2022/07/19 08:11:04;;;;;;;11.07;4.60;;;;;;;;;;4931322;28;20070;-74
2022/07/19 08:13:29;;;;;;;11.88;4.93;;;;;;;;;;4931975;28;20042;-75
2022/07/19 08:15:57;;;;;;;10.02;4.32;;;;;;;;;;4932628;28;20599;-78
2022/07/19 08:18:23;;;;;;;11.02;3.90;;;;;;;;;;4931008;28;20291;-72
2022/07/19 08:20:48;;;;;;;9.13;3.25;;;;;;;;;;4932946;28;20768;-71
2022/07/19 08:23:15;;;;;;;7.72;2.88;;;;;;;;;;4931586;28;20407;-73
2022/07/19 08:25:41;;;;;;;8.00;2.33;;;;;;;;;;4931858;28;20480;-73
2022/07/19 08:28:06;;;;;;;7.55;2.55;;;;;;;;;;4932336;28;20039;-73
2022/07/19 08:30:32;;;;;;;7.05;2.70;;;;;;;;;;4930496;28;20538;-74
2022/07/19 08:32:58;;;;;;;9.30;3.00;;;;;;;;;;4930381;28;20444;-73
2022/07/19 08:35:23;;;;;;;7.00;2.85;;;;;;;;;;4931786;28;20030;-74
2022/07/19 08:37:51;;;;;;;7.22;3.40;;;;;;;;;;4935003;28;20099;-72
2022/07/19 08:40:16;;;;;;;6.55;2.97;;;;;;;;;;4938584;28;20122;-74
2022/07/19 08:42:42;;;;;;;10.02;3.00;;;;;;;;;;4935668;28;20726;-73
2022/07/19 08:45:09;;;;;;;6.63;2.63;;;;;;;;;;4933587;28;20137;-74
2022/07/19 08:47:35;;;;;;;10.50;3.40;;;;;;;;;;4934049;28;20043;-72
2022/07/19 08:50:00;;;;;;;8.20;2.67;;;;;;;;;;4934055;28;20050;-72
2022/07/19 08:52:26;;;;;;;5.53;2.30;;;;;;;;;;4932851;28;20086;-73
2022/07/19 08:54:51;;;;;;;10.15;2.30;;;;;;;;;;4933641;28;21136;-72
2022/07/19 09:00:04;;;;;;;7.82;2.63;;;;;;;;;;4931941;28;20405;-71
2022/07/19 09:02:32;;;;;;;8.32;2.33;;;;;;;;;;4934679;28;20034;-71
2022/07/19 09:05:01;;;;;;;5.22;2.58;;;;;;;;;;4933476;28;20039;-71
2022/07/19 09:07:29;;;;;;;8.27;2.35;;;;;;;;;;4934570;28;20048;-71
2022/07/19 09:10:13;;;;;;;4.00;2.17;;;;;;;;;;4931738;28;20054;-73
2022/07/19 09:12:59;;;;;;;6.28;2.50;;;;;;;;;;4929916;28;20043;-71
2022/07/19 09:15:42;;;;;;;5.28;2.25;;;;;;;;;;4930442;28;20225;-73
2022/07/19 09:18:08;;;;;;;6.80;2.22;;;;;;;;;;4929206;28;20392;-72
2022/07/19 09:20:33;;;;;;;5.07;2.08;;;;;;;;;;4928052;28;21771;-73
2022/07/19 09:23:04;;;;;;;7.57;2.15;;;;;;;;;;4932012;28;20471;-73
2022/07/19 09:25:39;;;;;;;7.90;3.25;;;;;;;;;;4943836;28;20539;-72
2022/07/19 09:28:08;;;;;;;8.85;2.50;;;;;;;;;;4928094;28;20374;-75
2022/07/19 09:30:37;;;;;;;8.07;2.97;;;;;;;;;;4929610;28;20054;-72
2022/07/19 09:33:18;;;;;;;6.88;2.72;;;;;;;;;;4946944;28;20038;-72
2022/07/19 09:35:48;;;;;;;6.85;2.40;;;;;;;;;;4930567;28;20045;-71
2022/07/19 09:38:24;;;;;;;8.32;2.30;;;;;;;;;;4935921;28;20121;-72
2022/07/19 09:40:50;;;;;;;4.70;2.05;;;;;;;;;;4931911;28;20073;-68
2022/07/19 09:43:19;;;;;;;8.68;2.67;;;;;;;;;;4963761;28;20042;-72
2022/07/19 09:45:44;;;;;;;7.68;2.03;;;;;;;;;;4924582;28;20035;-71
2022/07/19 09:48:10;;;;;;;7.88;2.13;;;;;;;;;;4931933;28;20031;-71
2022/07/19 09:50:38;;;;;;;8.98;2.33;;;;;;;;;;4930689;28;20797;-69
2022/07/19 09:53:06;;;;;;;5.45;1.73;;;;;;;;;;4931235;28;21082;-71
2022/07/19 09:55:32;;;;;;;6.20;2.00;;;;;;;;;;4931880;28;20039;-69
2022/07/19 09:57:59;;;;;;;8.40;2.53;;;;;;;;;;4932189;28;20757;-69
2022/07/19 10:00:27;;;;;;;6.32;2.63;;;;;;;;;;4931972;28;20148;-69
2022/07/19 10:02:54;;;;;;;7.13;2.10;;;;;;;;;;4932174;28;20035;-73
2022/07/19 10:05:20;;;;;;;9.07;2.83;;;;;;;;;;4945235;28;20126;-71
2022/07/19 10:07:45;;;;;;;12.15;3.17;;;;;;;;;;4932399;28;20157;-70
2022/07/19 10:10:12;;;;;;;7.38;2.70;;;;;;;;;;4931213;28;20050;-67
2022/07/19 10:12:38;;;;;;;11.88;3.10;;;;;;;;;;4932126;28;20042;-71
2022/07/19 10:15:05;;;;;;;11.43;2.22;;;;;;;;;;4932444;28;20046;-68
2022/07/19 10:17:47;;;;;;;7.95;3.00;;;;;;;;;;4920389;28;20763;-68
2022/07/19 10:20:15;;;;;;;10.10;2.53;;;;;;;;;;4930461;28;20889;-66
2022/07/19 10:22:40;;;;;;;6.85;2.22;;;;;;;;;;4929536;28;20208;-67
2022/07/19 10:25:13;;;;;;;5.05;1.80;;;;;;;;;;4930346;28;20039;-69
2022/07/19 10:27:43;;;;;;;4.65;2.10;;;;;;;;;;4930140;28;20045;-67
2022/07/19 10:30:11;;;;;;;8.87;2.80;;;;;;;;;;4934430;28;21828;-67
2022/07/19 10:32:37;;;;;;;8.85;2.20;;;;;;;;;;4929386;28;20034;-68
2022/07/19 10:35:22;;;;;;;5.93;2.20;;;;;;;;;;4929129;28;20031;-67
2022/07/19 10:38:03;;;;;;;9.45;2.78;;;;;;;;;;4930057;28;20034;-70
2022/07/19 10:40:37;;;;;;;6.03;2.03;;;;;;;;;;4930249;28;20613;-67
2022/07/19 10:43:05;;;;;;;7.07;2.22;;;;;;;;;;4929556;28;20039;-67
2022/07/19 10:45:30;;;;;;;7.57;2.22;;;;;;;;;;4928908;28;21125;-68
2022/07/19 10:47:59;;;;;;;10.15;2.72;;;;;;;;;;4930513;28;20039;-67
2022/07/19 10:50:41;;;;;;;8.98;2.50;;;;;;;;;;4927983;28;20116;-68
2022/07/19 10:53:06;;;;;;;6.13;2.13;;;;;;;;;;4927841;28;20035;-68
2022/07/19 10:55:36;;;;;;;10.63;2.20;;;;;;;;;;4927131;28;20121;-67
2022/07/19 10:58:09;;;;;;;4.65;2.20;;;;;;;;;;4930992;28;21477;-67
2022/07/19 11:00:47;;;;;;;9.65;2.80;;;;;;;;;;4930497;28;21022;-67
2022/07/19 11:03:22;;;;;;;9.05;2.35;;;;;;;;;;4931718;28;20578;-68
2022/07/19 11:05:50;;;;;;;6.90;3.10;;;;;;;;;;4932149;28;20063;-66
2022/07/19 11:08:15;;;;;;;8.17;2.27;;;;;;;;;;4934300;28;20062;-67
2022/07/19 11:10:41;;;;;;;8.68;2.28;;;;;;;;;;4947125;28;20385;-68
2022/07/19 11:13:06;;;;;;;4.13;1.90;;;;;;;;;;4934303;28;20031;-68
2022/07/19 11:15:31;;;;;;;7.93;2.33;;;;;;;;;;4948194;28;21079;-71
2022/07/19 11:18:02;;;;;;;4.35;2.10;;;;;;;;;;4932792;28;20042;-68
2022/07/19 11:20:32;;;;;;;5.72;2.03;;;;;;;;;;4933902;28;20054;-67
2022/07/19 11:22:58;;;;;;;7.40;2.40;;;;;;;;;;4933468;28;20141;-67
2022/07/19 11:25:25;;;;;;;7.60;2.30;;;;;;;;;;4935415;28;20250;-67
2022/07/19 11:27:50;;;;;;;8.77;2.15;;;;;;;;;;4947305;28;20035;-67
2022/07/19 11:30:16;;;;;;;9.82;2.60;;;;;;;;;;4933461;28;20047;-67
2022/07/19 11:32:42;;;;;;;9.05;3.15;;;;;;;;;;4932417;28;20159;-68
2022/07/19 11:35:12;;;;;;;5.50;2.60;;;;;;;;;;4930822;28;20113;-67
2022/07/19 11:37:41;;;;;;;5.57;2.90;;;;;;;;;;4934611;28;20074;-67
2022/07/19 11:40:07;;;;;;;11.43;3.05;;;;;;;;;;4932951;28;20027;-66
2022/07/19 11:42:40;;;;;;;5.22;2.08;;;;;;;;;;4933643;28;20037;-68
2022/07/19 11:45:08;;;;;;;9.88;3.00;;;;;;;;;;4933374;28;20035;-67
2022/07/19 11:47:34;;;;;;;6.43;1.85;;;;;;;;;;4932429;28;20093;-68
2022/07/19 11:50:06;;;;;;;6.15;1.98;;;;;;;;;;4932869;28;20042;-68
2022/07/19 11:52:40;;;;;;;4.25;2.15;;;;;;;;;;4932927;28;20895;-69
2022/07/19 11:55:06;;;;;;;6.18;2.33;;;;;;;;;;4934224;28;21090;-69
2022/07/19 11:57:32;;;;;;;6.20;2.85;;;;;;;;;;4930578;28;20073;-67
2022/07/19 11:59:59;;;;;;;5.15;2.38;;;;;;;;;;4945188;28;20043;-69
2022/07/19 12:02:25;;;;;;;7.43;2.50;;;;;;;;;;4937408;28;21018;-67
2022/07/19 12:04:50;;;;;;;7.33;2.17;;;;;;;;;;4933254;28;20050;-68
2022/07/19 12:07:18;;;;;;;8.63;2.70;;;;;;;;;;4933389;28;20353;-68
2022/07/19 12:09:43;;;;;;;8.20;2.60;;;;;;;;;;4932728;28;20942;-68
2022/07/19 12:12:12;;;;;;;7.75;2.30;;;;;;;;;;4930933;28;20800;-68
2022/07/19 12:14:40;;;;;;;5.68;2.05;;;;;;;;;;4931970;28;20035;-67
2022/07/19 12:17:15;;;;;;;7.75;1.70;;;;;;;;;;4933070;28;20038;-66
2022/07/19 12:19:44;;;;;;;7.20;2.33;;;;;;;;;;4929795;28;20070;-67
2022/07/19 12:22:28;;;;;;;5.45;2.17;;;;;;;;;;4928707;28;20035;-67
2022/07/19 12:24:53;;;;;;;6.30;2.38;;;;;;;;;;4925497;28;20295;-66
2022/07/19 12:27:20;;;;;;;8.60;2.53;;;;;;;;;;4932006;28;20026;-67
2022/07/19 12:29:46;;;;;;;5.10;1.95;;;;;;;;;;4932694;28;21128;-67
2022/07/19 12:32:13;;;;;;;6.80;1.90;;;;;;;;;;4933173;28;20038;-66
2022/07/19 12:34:43;;;;;;;6.45;2.00;;;;;;;;;;4938447;28;20267;-67
2022/07/19 12:37:18;;;;;;;6.93;2.30;;;;;;;;;;4932116;28;20035;-67
2022/07/19 12:39:55;;;;;;;8.70;2.90;;;;;;;;;;4946858;28;20065;-69
2022/07/19 12:42:20;;;;;;;8.15;2.30;;;;;;;;;;4932003;28;22756;-68
2022/07/19 12:44:45;;;;;;;5.75;1.42;;;;;;;;;;4932499;28;20038;-66
2022/07/19 12:47:16;;;;;;;7.05;1.60;;;;;;;;;;4931854;28;20041;-69
2022/07/19 12:49:42;;;;;;;7.95;1.85;;;;;;;;;;4935956;28;20038;-68
2022/07/19 12:52:08;;;;;;;6.90;2.42;;;;;;;;;;4932441;28;20079;-68
2022/07/19 12:54:33;;;;;;;6.22;2.03;;;;;;;;;;4932043;28;20271;-68
2022/07/19 12:56:58;;;;;;;5.40;2.00;;;;;;;;;;4932849;28;20046;-70
2022/07/19 12:59:39;;;;;;;5.70;2.20;;;;;;;;;;4930218;28;20293;-70
2022/07/19 13:02:16;;;;;;;6.28;2.30;;;;;;;;;;4944247;28;20367;-69
2022/07/19 13:04:45;;;;;;;8.05;2.53;;;;;;;;;;4934024;28;20089;-68
2022/07/19 13:07:11;;;;;;;7.82;1.90;;;;;;;;;;4935218;28;20793;-66
2022/07/19 13:09:37;;;;;;;6.57;1.70;;;;;;;;;;4931738;28;20126;-66
2022/07/19 13:12:05;;;;;;;10.95;2.20;;;;;;;;;;4930875;28;20214;-66
2022/07/19 13:14:34;;;;;;;6.18;2.28;;;;;;;;;;4931536;28;20053;-67
2022/07/19 13:16:59;;;;;;;5.80;2.03;;;;;;;;;;4931692;28;20032;-66
2022/07/19 13:19:25;;;;;;;3.07;1.40;;;;;;;;;;4931022;28;20917;-69
2022/07/19 13:21:53;;;;;;;4.03;1.42;;;;;;;;;;4930053;28;20282;-68
2022/07/19 13:24:19;;;;;;;6.65;1.90;;;;;;;;;;4930012;28;20845;-68
2022/07/19 13:26:44;;;;;;;5.68;2.10;;;;;;;;;;4932339;28;20035;-68
2022/07/19 13:29:10;;;;;;;8.68;2.10;;;;;;;;;;4931229;28;20035;-68
2022/07/19 13:31:38;;;;;;;5.20;2.30;;;;;;;;;;4931061;28;20066;-69
2022/07/19 13:34:06;;;;;;;9.77;2.20;;;;;;;;;;4930426;28;20839;-69
2022/07/19 13:36:31;;;;;;;5.53;1.77;;;;;;;;;;4930253;28;20121;-68
2022/07/19 13:38:58;;;;;;;7.07;2.00;;;;;;;;;;4919393;28;20075;-69
2022/07/19 13:41:24;;;;;;;5.80;1.67;;;;;;;;;;4931788;28;20053;-69
2022/07/19 13:43:49;;;;;;;6.67;1.80;;;;;;;;;;4931035;28;20373;-68
2022/07/19 13:46:14;;;;;;;7.57;2.10;;;;;;;;;;4931377;28;20544;-69
2022/07/19 13:48:41;;;;;;;5.93;1.88;;;;;;;;;;4930073;28;20034;-68
2022/07/19 13:51:09;;;;;;;4.38;2.28;;;;;;;;;;4930894;28;20117;-69
2022/07/19 13:53:35;;;;;;;6.47;1.92;;;;;;;;;;4930686;28;20035;-69
2022/07/19 13:56:01;;;;;;;4.00;1.73;;;;;;;;;;4929940;28;20039;-68
2022/07/19 13:58:26;;;;;;;8.63;1.50;;;;;;;;;;4945042;28;20050;-69
2022/07/19 14:00:51;;;;;;;5.50;1.90;;;;;;;;;;4936608;28;20229;-68
2022/07/19 14:03:17;;;;;;;7.38;1.80;;;;;;;;;;4930431;28;20038;-68
2022/07/19 14:05:43;;;;;;;4.90;1.77;;;;;;;;;;4930467;28;20066;-67
2022/07/19 14:08:08;;;;;;;8.02;2.90;;;;;;;;;;4930477;28;22348;-66
2022/07/19 14:10:34;;;;;;;9.82;2.60;;;;;;;;;;4930766;28;20047;-67
2022/07/19 14:13:02;;;;;;;7.40;2.03;;;;;;;;;;4929127;28;20030;-66
2022/07/19 14:15:28;;;;;;;7.03;4.63;;;;;;;;;;4923694;28;20133;-66
2022/07/19 14:17:54;;;;;;;6.45;1.92;;;;;;;;;;4924471;28;20813;-67
2022/07/19 14:20:19;;;;;;;5.03;2.45;;;;;;;;;;4928629;28;21028;-66
2022/07/19 14:22:44;;;;;;;6.63;2.08;;;;;;;;;;4931072;28;20104;-67
2022/07/19 14:25:09;;;;;;;10.47;2.40;;;;;;;;;;4930612;28;20397;-66
2022/07/19 14:27:35;;;;;;;10.07;2.30;;;;;;;;;;4931573;28;20274;-66
2022/07/19 14:30:01;;;;;;;8.60;2.42;;;;;;;;;;4933809;28;20074;-67
2022/07/19 14:32:26;;;;;;;8.17;3.23;;;;;;;;;;4935771;28;20149;-66
2022/07/19 14:34:53;;;;;;;7.43;2.27;;;;;;;;;;4926910;28;20306;-65
2022/07/19 14:37:19;;;;;;;9.70;2.20;;;;;;;;;;4936564;28;20290;-65